sensor_id;sensor_type;location;lat;lon;timestamp;P1;durP1;ratioP1;P2;durP2;ratioP2
41687;SDS011;27371;42.686;23.362;2023-06-22T00:03:02;6.65;;;5.88;;
41687;SDS011;27371;42.686;23.362;2023-06-22T00:05:28;6.93;;;6.22;;
41687;SDS011;27371;42.686;23.362;2023-06-22T00:07:53;9.75;;;6.50;;
41687;SDS011;27371;42.686;23.362;2023-06-22T00:10:19;7.68;;;6.70;;
41687;SDS011;27371;42.686;23.362;2023-06-22T00:12:44;7.15;;;5.85;;
41687;SDS011;27371;42.686;23.362;2023-06-22T00:15:10;8.13;;;6.43;;
41687;SDS011;27371;42.686;23.362;2023-06-22T00:17:35;8.00;;;6.50;;
41687;SDS011;27371;42.686;23.362;2023-06-22T00:20:01;8.02;;;6.85;;
41687;SDS011;27371;42.686;23.362;2023-06-22T00:22:30;7.28;;;6.57;;
41687;SDS011;27371;42.686;23.362;2023-06-22T00:24:57;7.30;;;6.60;;
41687;SDS011;27371;42.686;23.362;2023-06-22T00:27:23;7.68;;;6.45;;
41687;SDS011;27371;42.686;23.362;2023-06-22T00:29:49;6.95;;;6.25;;
41687;SDS011;27371;42.686;23.362;2023-06-22T00:32:14;7.63;;;6.93;;
41687;SDS011;27371;42.686;23.362;2023-06-22T00:34:41;9.38;;;7.55;;
41687;SDS011;27371;42.686;23.362;2023-06-22T00:37:06;9.85;;;7.25;;
41687;SDS011;27371;42.686;23.362;2023-06-22T00:39:32;9.52;;;7.10;;
41687;SDS011;27371;42.686;23.362;2023-06-22T00:41:58;7.85;;;7.05;;
41687;SDS011;27371;42.686;23.362;2023-06-22T00:44:24;7.97;;;7.18;;
41687;SDS011;27371;42.686;23.362;2023-06-22T00:46:50;15.32;;;7.55;;
41687;SDS011;27371;42.686;23.362;2023-06-22T00:49:22;8.50;;;7.70;;
41687;SDS011;27371;42.686;23.362;2023-06-22T00:51:48;9.90;;;7.07;;
41687;SDS011;27371;42.686;23.362;2023-06-22T00:54:14;9.82;;;7.95;;
41687;SDS011;27371;42.686;23.362;2023-06-22T00:56:40;11.38;;;8.13;;
41687;SDS011;27371;42.686;23.362;2023-06-22T00:59:07;9.10;;;8.10;;
41687;SDS011;27371;42.686;23.362;2023-06-22T01:01:37;8.35;;;7.50;;
41687;SDS011;27371;42.686;23.362;2023-06-22T01:04:06;8.25;;;7.45;;
41687;SDS011;27371;42.686;23.362;2023-06-22T01:06:35;10.45;;;8.07;;
41687;SDS011;27371;42.686;23.362;2023-06-22T01:09:12;9.05;;;7.88;;
41687;SDS011;27371;42.686;23.362;2023-06-22T01:11:50;8.95;;;7.20;;
41687;SDS011;27371;42.686;23.362;2023-06-22T01:14:28;9.02;;;7.57;;
41687;SDS011;27371;42.686;23.362;2023-06-22T01:16:58;8.43;;;7.63;;
41687;SDS011;27371;42.686;23.362;2023-06-22T01:19:45;11.95;;;9.68;;
41687;SDS011;27371;42.686;23.362;2023-06-22T01:22:14;12.45;;;8.45;;
41687;SDS011;27371;42.686;23.362;2023-06-22T01:24:55;15.32;;;13.82;;
41687;SDS011;27371;42.686;23.362;2023-06-22T01:27:36;20.20;;;18.33;;
41687;SDS011;27371;42.686;23.362;2023-06-22T01:30:13;28.30;;;25.38;;
41687;SDS011;27371;42.686;23.362;2023-06-22T01:32:41;24.20;;;21.67;;
41687;SDS011;27371;42.686;23.362;2023-06-22T01:35:08;18.38;;;15.20;;
41687;SDS011;27371;42.686;23.362;2023-06-22T01:37:35;19.35;;;16.85;;
41687;SDS011;27371;42.686;23.362;2023-06-22T01:40:02;13.60;;;11.23;;
41687;SDS011;27371;42.686;23.362;2023-06-22T01:42:31;11.43;;;10.30;;
41687;SDS011;27371;42.686;23.362;2023-06-22T01:44:57;12.75;;;10.40;;
41687;SDS011;27371;42.686;23.362;2023-06-22T01:47:24;14.48;;;11.68;;
41687;SDS011;27371;42.686;23.362;2023-06-22T01:49:50;11.15;;;10.15;;
41687;SDS011;27371;42.686;23.362;2023-06-22T01:52:17;11.43;;;10.27;;
41687;SDS011;27371;42.686;23.362;2023-06-22T01:54:43;12.63;;;10.48;;
41687;SDS011;27371;42.686;23.362;2023-06-22T01:57:08;11.25;;;10.15;;
41687;SDS011;27371;42.686;23.362;2023-06-22T01:59:39;12.52;;;10.38;;
41687;SDS011;27371;42.686;23.362;2023-06-22T02:02:09;11.30;;;10.07;;
41687;SDS011;27371;42.686;23.362;2023-06-22T02:07:12;11.13;;;9.20;;
41687;SDS011;27371;42.686;23.362;2023-06-22T02:09:42;10.60;;;9.13;;
41687;SDS011;27371;42.686;23.362;2023-06-22T02:12:11;10.30;;;8.85;;
41687;SDS011;27371;42.686;23.362;2023-06-22T02:14:39;10.20;;;9.02;;
41687;SDS011;27371;42.686;23.362;2023-06-22T02:17:05;12.00;;;9.65;;
41687;SDS011;27371;42.686;23.362;2023-06-22T02:19:37;10.98;;;9.68;;
41687;SDS011;27371;42.686;23.362;2023-06-22T02:22:04;12.52;;;9.75;;
41687;SDS011;27371;42.686;23.362;2023-06-22T02:24:30;12.75;;;9.70;;
41687;SDS011;27371;42.686;23.362;2023-06-22T02:27:00;11.00;;;8.77;;
41687;SDS011;27371;42.686;23.362;2023-06-22T02:29:27;12.18;;;8.85;;
41687;SDS011;27371;42.686;23.362;2023-06-22T02:31:53;11.50;;;8.90;;
41687;SDS011;27371;42.686;23.362;2023-06-22T02:34:19;8.73;;;7.85;;
41687;SDS011;27371;42.686;23.362;2023-06-22T02:36:50;11.98;;;7.72;;
41687;SDS011;27371;42.686;23.362;2023-06-22T02:39:18;12.30;;;7.50;;
41687;SDS011;27371;42.686;23.362;2023-06-22T02:41:45;8.32;;;7.20;;
41687;SDS011;27371;42.686;23.362;2023-06-22T02:44:10;11.63;;;8.10;;
41687;SDS011;27371;42.686;23.362;2023-06-22T02:46:36;9.82;;;7.57;;
41687;SDS011;27371;42.686;23.362;2023-06-22T02:49:02;8.75;;;7.25;;
41687;SDS011;27371;42.686;23.362;2023-06-22T02:51:27;12.18;;;7.40;;
41687;SDS011;27371;42.686;23.362;2023-06-22T02:53:53;9.85;;;8.10;;
41687;SDS011;27371;42.686;23.362;2023-06-22T02:56:22;10.05;;;8.75;;
41687;SDS011;27371;42.686;23.362;2023-06-22T02:58:50;9.38;;;7.32;;
41687;SDS011;27371;42.686;23.362;2023-06-22T03:01:16;9.90;;;7.78;;
41687;SDS011;27371;42.686;23.362;2023-06-22T03:03:49;9.32;;;7.15;;
41687;SDS011;27371;42.686;23.362;2023-06-22T03:06:15;9.00;;;7.80;;
41687;SDS011;27371;42.686;23.362;2023-06-22T03:08:40;8.05;;;7.25;;
41687;SDS011;27371;42.686;23.362;2023-06-22T03:11:07;9.77;;;7.32;;
41687;SDS011;27371;42.686;23.362;2023-06-22T03:13:33;12.50;;;7.85;;
41687;SDS011;27371;42.686;23.362;2023-06-22T03:15:58;10.57;;;7.60;;
41687;SDS011;27371;42.686;23.362;2023-06-22T03:18:24;8.98;;;7.65;;
41687;SDS011;27371;42.686;23.362;2023-06-22T03:20:50;10.48;;;7.93;;
41687;SDS011;27371;42.686;23.362;2023-06-22T03:23:15;9.82;;;7.25;;
41687;SDS011;27371;42.686;23.362;2023-06-22T03:25:41;8.85;;;7.28;;
41687;SDS011;27371;42.686;23.362;2023-06-22T03:28:07;8.27;;;6.85;;
41687;SDS011;27371;42.686;23.362;2023-06-22T03:30:32;10.18;;;6.68;;
41687;SDS011;27371;42.686;23.362;2023-06-22T03:32:58;8.80;;;7.13;;
41687;SDS011;27371;42.686;23.362;2023-06-22T03:35:23;15.38;;;7.35;;
41687;SDS011;27371;42.686;23.362;2023-06-22T03:37:52;7.90;;;6.47;;
41687;SDS011;27371;42.686;23.362;2023-06-22T03:40:18;7.10;;;6.40;;
41687;SDS011;27371;42.686;23.362;2023-06-22T03:42:43;8.07;;;6.45;;
41687;SDS011;27371;42.686;23.362;2023-06-22T03:45:09;8.57;;;6.80;;
41687;SDS011;27371;42.686;23.362;2023-06-22T03:47:35;10.85;;;7.28;;
41687;SDS011;27371;42.686;23.362;2023-06-22T03:50:01;8.20;;;6.85;;
41687;SDS011;27371;42.686;23.362;2023-06-22T03:52:28;15.68;;;7.05;;
41687;SDS011;27371;42.686;23.362;2023-06-22T03:54:54;9.95;;;6.82;;
41687;SDS011;27371;42.686;23.362;2023-06-22T03:57:20;11.27;;;6.70;;
41687;SDS011;27371;42.686;23.362;2023-06-22T03:59:46;11.32;;;6.88;;
41687;SDS011;27371;42.686;23.362;2023-06-22T04:02:11;10.00;;;6.78;;
41687;SDS011;27371;42.686;23.362;2023-06-22T04:04:37;13.15;;;6.53;;
41687;SDS011;27371;42.686;23.362;2023-06-22T04:07:04;9.30;;;7.03;;
41687;SDS011;27371;42.686;23.362;2023-06-22T04:09:30;12.13;;;7.10;;
41687;SDS011;27371;42.686;23.362;2023-06-22T04:11:55;10.38;;;6.88;;
41687;SDS011;27371;42.686;23.362;2023-06-22T04:14:21;10.00;;;6.95;;
41687;SDS011;27371;42.686;23.362;2023-06-22T04:16:46;8.18;;;6.05;;
41687;SDS011;27371;42.686;23.362;2023-06-22T04:19:12;10.77;;;6.95;;
41687;SDS011;27371;42.686;23.362;2023-06-22T04:21:41;8.43;;;6.57;;
41687;SDS011;27371;42.686;23.362;2023-06-22T04:24:08;13.82;;;7.72;;
41687;SDS011;27371;42.686;23.362;2023-06-22T04:26:33;11.02;;;7.43;;
41687;SDS011;27371;42.686;23.362;2023-06-22T04:29:02;12.60;;;7.70;;
41687;SDS011;27371;42.686;23.362;2023-06-22T04:31:31;10.80;;;7.97;;
41687;SDS011;27371;42.686;23.362;2023-06-22T04:33:57;8.70;;;7.80;;
41687;SDS011;27371;42.686;23.362;2023-06-22T04:36:30;9.45;;;7.72;;
41687;SDS011;27371;42.686;23.362;2023-06-22T04:39:08;10.10;;;8.23;;
41687;SDS011;27371;42.686;23.362;2023-06-22T04:41:39;14.75;;;8.85;;
41687;SDS011;27371;42.686;23.362;2023-06-22T04:44:09;13.05;;;8.77;;
41687;SDS011;27371;42.686;23.362;2023-06-22T04:46:34;14.00;;;8.70;;
41687;SDS011;27371;42.686;23.362;2023-06-22T04:49:03;15.27;;;8.60;;
41687;SDS011;27371;42.686;23.362;2023-06-22T04:51:31;9.90;;;7.93;;
41687;SDS011;27371;42.686;23.362;2023-06-22T04:53:57;10.85;;;7.90;;
41687;SDS011;27371;42.686;23.362;2023-06-22T04:56:25;12.70;;;8.52;;
41687;SDS011;27371;42.686;23.362;2023-06-22T04:58:53;12.38;;;8.20;;
41687;SDS011;27371;42.686;23.362;2023-06-22T05:01:22;12.88;;;7.97;;
41687;SDS011;27371;42.686;23.362;2023-06-22T05:03:48;11.55;;;8.68;;
41687;SDS011;27371;42.686;23.362;2023-06-22T05:06:14;9.10;;;7.88;;
41687;SDS011;27371;42.686;23.362;2023-06-22T05:08:40;9.93;;;7.57;;
41687;SDS011;27371;42.686;23.362;2023-06-22T05:11:06;9.73;;;7.00;;
41687;SDS011;27371;42.686;23.362;2023-06-22T05:13:32;9.00;;;7.82;;
41687;SDS011;27371;42.686;23.362;2023-06-22T05:15:57;11.00;;;7.97;;
41687;SDS011;27371;42.686;23.362;2023-06-22T05:18:27;11.82;;;7.95;;
41687;SDS011;27371;42.686;23.362;2023-06-22T05:20:55;10.57;;;7.57;;
41687;SDS011;27371;42.686;23.362;2023-06-22T05:23:20;12.82;;;7.85;;
41687;SDS011;27371;42.686;23.362;2023-06-22T05:25:46;9.73;;;7.50;;
41687;SDS011;27371;42.686;23.362;2023-06-22T05:28:11;11.45;;;8.07;;
41687;SDS011;27371;42.686;23.362;2023-06-22T05:30:37;9.88;;;7.75;;
41687;SDS011;27371;42.686;23.362;2023-06-22T05:33:03;13.02;;;7.43;;
41687;SDS011;27371;42.686;23.362;2023-06-22T05:35:29;14.05;;;7.95;;
41687;SDS011;27371;42.686;23.362;2023-06-22T05:37:54;13.90;;;8.98;;
41687;SDS011;27371;42.686;23.362;2023-06-22T05:40:22;10.57;;;7.78;;
41687;SDS011;27371;42.686;23.362;2023-06-22T05:42:48;13.13;;;7.70;;
41687;SDS011;27371;42.686;23.362;2023-06-22T05:45:14;11.68;;;7.72;;
41687;SDS011;27371;42.686;23.362;2023-06-22T05:47:39;16.55;;;8.18;;
41687;SDS011;27371;42.686;23.362;2023-06-22T05:50:05;8.10;;;6.75;;
41687;SDS011;27371;42.686;23.362;2023-06-22T05:52:33;8.05;;;6.47;;
41687;SDS011;27371;42.686;23.362;2023-06-22T05:54:58;7.85;;;7.00;;
41687;SDS011;27371;42.686;23.362;2023-06-22T05:57:24;8.52;;;6.35;;
41687;SDS011;27371;42.686;23.362;2023-06-22T05:59:53;9.45;;;6.75;;
41687;SDS011;27371;42.686;23.362;2023-06-22T06:02:19;7.75;;;6.95;;
41687;SDS011;27371;42.686;23.362;2023-06-22T06:04:44;8.70;;;7.43;;
41687;SDS011;27371;42.686;23.362;2023-06-22T06:07:10;10.35;;;6.90;;
41687;SDS011;27371;42.686;23.362;2023-06-22T06:09:36;10.13;;;6.90;;
41687;SDS011;27371;42.686;23.362;2023-06-22T06:12:01;9.30;;;7.18;;
41687;SDS011;27371;42.686;23.362;2023-06-22T06:14:28;12.02;;;7.90;;
41687;SDS011;27371;42.686;23.362;2023-06-22T06:16:53;8.48;;;7.60;;
41687;SDS011;27371;42.686;23.362;2023-06-22T06:19:19;13.07;;;7.82;;
41687;SDS011;27371;42.686;23.362;2023-06-22T06:21:45;10.52;;;7.68;;
41687;SDS011;27371;42.686;23.362;2023-06-22T06:24:11;11.18;;;7.25;;
41687;SDS011;27371;42.686;23.362;2023-06-22T06:26:37;12.40;;;8.40;;
41687;SDS011;27371;42.686;23.362;2023-06-22T06:29:03;12.90;;;8.30;;
41687;SDS011;27371;42.686;23.362;2023-06-22T06:31:28;9.65;;;7.55;;
41687;SDS011;27371;42.686;23.362;2023-06-22T06:33:54;12.23;;;7.55;;
41687;SDS011;27371;42.686;23.362;2023-06-22T06:36:20;20.75;;;8.35;;
41687;SDS011;27371;42.686;23.362;2023-06-22T06:38:46;11.80;;;7.45;;
41687;SDS011;27371;42.686;23.362;2023-06-22T06:41:15;10.80;;;8.45;;
41687;SDS011;27371;42.686;23.362;2023-06-22T06:43:41;14.10;;;8.30;;
41687;SDS011;27371;42.686;23.362;2023-06-22T06:46:10;15.30;;;8.98;;
41687;SDS011;27371;42.686;23.362;2023-06-22T06:48:36;12.30;;;7.85;;
41687;SDS011;27371;42.686;23.362;2023-06-22T06:51:01;15.23;;;7.97;;
41687;SDS011;27371;42.686;23.362;2023-06-22T06:53:27;10.73;;;8.02;;
41687;SDS011;27371;42.686;23.362;2023-06-22T06:55:53;13.05;;;7.95;;
41687;SDS011;27371;42.686;23.362;2023-06-22T06:58:19;12.23;;;8.00;;
41687;SDS011;27371;42.686;23.362;2023-06-22T07:00:45;10.65;;;7.40;;
41687;SDS011;27371;42.686;23.362;2023-06-22T07:03:11;11.45;;;6.97;;
41687;SDS011;27371;42.686;23.362;2023-06-22T07:05:42;13.65;;;7.68;;
41687;SDS011;27371;42.686;23.362;2023-06-22T07:08:08;10.52;;;7.88;;
41687;SDS011;27371;42.686;23.362;2023-06-22T07:10:34;10.13;;;8.50;;
41687;SDS011;27371;42.686;23.362;2023-06-22T07:12:59;12.82;;;8.13;;
41687;SDS011;27371;42.686;23.362;2023-06-22T07:15:25;15.57;;;9.13;;
41687;SDS011;27371;42.686;23.362;2023-06-22T07:17:50;16.25;;;7.68;;
41687;SDS011;27371;42.686;23.362;2023-06-22T07:20:16;11.43;;;8.45;;
41687;SDS011;27371;42.686;23.362;2023-06-22T07:22:43;21.02;;;7.90;;
41687;SDS011;27371;42.686;23.362;2023-06-22T07:25:12;8.35;;;6.75;;
41687;SDS011;27371;42.686;23.362;2023-06-22T07:27:42;11.38;;;6.80;;
41687;SDS011;27371;42.686;23.362;2023-06-22T07:30:10;10.95;;;7.95;;
41687;SDS011;27371;42.686;23.362;2023-06-22T07:32:36;12.65;;;7.93;;
41687;SDS011;27371;42.686;23.362;2023-06-22T07:35:02;11.00;;;7.85;;
41687;SDS011;27371;42.686;23.362;2023-06-22T07:37:29;12.13;;;7.68;;
41687;SDS011;27371;42.686;23.362;2023-06-22T07:39:56;11.05;;;7.60;;
41687;SDS011;27371;42.686;23.362;2023-06-22T07:42:25;12.40;;;7.32;;
41687;SDS011;27371;42.686;23.362;2023-06-22T07:44:51;14.80;;;7.40;;
41687;SDS011;27371;42.686;23.362;2023-06-22T07:47:16;10.07;;;7.35;;
41687;SDS011;27371;42.686;23.362;2023-06-22T07:49:44;12.82;;;8.02;;
41687;SDS011;27371;42.686;23.362;2023-06-22T07:52:11;11.55;;;7.28;;
41687;SDS011;27371;42.686;23.362;2023-06-22T07:54:36;12.82;;;7.35;;
41687;SDS011;27371;42.686;23.362;2023-06-22T07:57:02;14.18;;;7.22;;
41687;SDS011;27371;42.686;23.362;2023-06-22T07:59:28;12.82;;;7.60;;
41687;SDS011;27371;42.686;23.362;2023-06-22T08:01:54;15.43;;;7.88;;
41687;SDS011;27371;42.686;23.362;2023-06-22T08:04:20;10.43;;;7.50;;
41687;SDS011;27371;42.686;23.362;2023-06-22T08:06:46;14.88;;;7.25;;
41687;SDS011;27371;42.686;23.362;2023-06-22T08:09:14;12.05;;;6.85;;
41687;SDS011;27371;42.686;23.362;2023-06-22T08:11:40;8.95;;;7.32;;
41687;SDS011;27371;42.686;23.362;2023-06-22T08:14:05;11.52;;;7.35;;
41687;SDS011;27371;42.686;23.362;2023-06-22T08:16:31;11.00;;;7.22;;
41687;SDS011;27371;42.686;23.362;2023-06-22T08:18:57;11.38;;;7.93;;
41687;SDS011;27371;42.686;23.362;2023-06-22T08:21:22;11.05;;;6.95;;
41687;SDS011;27371;42.686;23.362;2023-06-22T08:23:48;16.65;;;8.68;;
41687;SDS011;27371;42.686;23.362;2023-06-22T08:26:14;16.23;;;8.45;;
41687;SDS011;27371;42.686;23.362;2023-06-22T08:28:40;13.55;;;7.88;;
41687;SDS011;27371;42.686;23.362;2023-06-22T08:31:06;12.05;;;8.55;;
41687;SDS011;27371;42.686;23.362;2023-06-22T08:33:31;10.75;;;7.53;;
41687;SDS011;27371;42.686;23.362;2023-06-22T08:35:58;14.40;;;8.32;;
41687;SDS011;27371;42.686;23.362;2023-06-22T08:38:28;18.60;;;9.65;;
41687;SDS011;27371;42.686;23.362;2023-06-22T08:40:53;19.27;;;8.68;;
41687;SDS011;27371;42.686;23.362;2023-06-22T08:43:19;15.90;;;8.32;;
41687;SDS011;27371;42.686;23.362;2023-06-22T08:45:44;17.77;;;7.68;;
41687;SDS011;27371;42.686;23.362;2023-06-22T08:48:10;11.85;;;7.68;;
41687;SDS011;27371;42.686;23.362;2023-06-22T08:50:36;13.35;;;7.30;;
41687;SDS011;27371;42.686;23.362;2023-06-22T08:53:01;13.00;;;7.43;;
41687;SDS011;27371;42.686;23.362;2023-06-22T08:55:27;12.45;;;7.88;;
41687;SDS011;27371;42.686;23.362;2023-06-22T08:57:53;12.02;;;8.05;;
41687;SDS011;27371;42.686;23.362;2023-06-22T09:00:18;15.52;;;8.95;;
41687;SDS011;27371;42.686;23.362;2023-06-22T09:02:45;11.68;;;7.88;;
41687;SDS011;27371;42.686;23.362;2023-06-22T09:05:11;15.88;;;9.23;;
41687;SDS011;27371;42.686;23.362;2023-06-22T09:07:37;17.45;;;9.20;;
41687;SDS011;27371;42.686;23.362;2023-06-22T09:10:03;14.13;;;7.72;;
41687;SDS011;27371;42.686;23.362;2023-06-22T09:12:32;8.77;;;6.90;;
41687;SDS011;27371;42.686;23.362;2023-06-22T09:15:01;16.88;;;7.65;;
41687;SDS011;27371;42.686;23.362;2023-06-22T09:17:28;10.68;;;7.78;;
41687;SDS011;27371;42.686;23.362;2023-06-22T09:19:53;16.55;;;8.38;;
41687;SDS011;27371;42.686;23.362;2023-06-22T09:22:19;13.27;;;8.13;;
41687;SDS011;27371;42.686;23.362;2023-06-22T09:24:45;13.07;;;7.78;;
41687;SDS011;27371;42.686;23.362;2023-06-22T09:27:10;10.98;;;7.82;;
41687;SDS011;27371;42.686;23.362;2023-06-22T09:29:36;12.60;;;8.15;;
41687;SDS011;27371;42.686;23.362;2023-06-22T09:32:01;10.85;;;7.75;;
41687;SDS011;27371;42.686;23.362;2023-06-22T09:34:27;11.55;;;6.97;;
41687;SDS011;27371;42.686;23.362;2023-06-22T09:36:53;10.95;;;7.40;;
41687;SDS011;27371;42.686;23.362;2023-06-22T09:39:19;10.63;;;7.35;;
41687;SDS011;27371;42.686;23.362;2023-06-22T09:41:44;11.60;;;6.55;;
41687;SDS011;27371;42.686;23.362;2023-06-22T09:44:10;9.60;;;5.90;;
41687;SDS011;27371;42.686;23.362;2023-06-22T09:46:35;6.75;;;5.35;;
41687;SDS011;27371;42.686;23.362;2023-06-22T09:49:01;11.45;;;5.57;;
41687;SDS011;27371;42.686;23.362;2023-06-22T09:51:26;9.18;;;6.18;;
41687;SDS011;27371;42.686;23.362;2023-06-22T09:53:52;6.78;;;5.72;;
41687;SDS011;27371;42.686;23.362;2023-06-22T09:56:20;9.77;;;6.20;;
41687;SDS011;27371;42.686;23.362;2023-06-22T09:58:46;9.95;;;7.03;;
41687;SDS011;27371;42.686;23.362;2023-06-22T10:01:15;7.20;;;6.22;;
41687;SDS011;27371;42.686;23.362;2023-06-22T10:03:41;7.88;;;6.63;;
41687;SDS011;27371;42.686;23.362;2023-06-22T10:06:06;5.82;;;5.32;;
41687;SDS011;27371;42.686;23.362;2023-06-22T10:08:34;8.85;;;6.45;;
41687;SDS011;27371;42.686;23.362;2023-06-22T10:10:59;6.25;;;5.63;;
41687;SDS011;27371;42.686;23.362;2023-06-22T10:13:25;9.93;;;6.05;;
41687;SDS011;27371;42.686;23.362;2023-06-22T10:15:51;8.70;;;5.50;;
41687;SDS011;27371;42.686;23.362;2023-06-22T10:18:20;8.38;;;5.28;;
41687;SDS011;27371;42.686;23.362;2023-06-22T10:20:49;6.55;;;5.10;;
41687;SDS011;27371;42.686;23.362;2023-06-22T10:23:16;5.13;;;4.63;;
41687;SDS011;27371;42.686;23.362;2023-06-22T10:25:42;6.53;;;5.53;;
41687;SDS011;27371;42.686;23.362;2023-06-22T10:28:08;8.52;;;5.80;;
41687;SDS011;27371;42.686;23.362;2023-06-22T10:30:33;11.10;;;5.05;;
41687;SDS011;27371;42.686;23.362;2023-06-22T10:32:59;6.15;;;5.30;;
41687;SDS011;27371;42.686;23.362;2023-06-22T10:35:25;5.05;;;4.65;;
41687;SDS011;27371;42.686;23.362;2023-06-22T10:37:50;7.85;;;5.38;;
41687;SDS011;27371;42.686;23.362;2023-06-22T10:40:16;5.75;;;5.00;;
41687;SDS011;27371;42.686;23.362;2023-06-22T10:42:43;6.35;;;5.00;;
41687;SDS011;27371;42.686;23.362;2023-06-22T10:45:09;7.93;;;5.22;;
41687;SDS011;27371;42.686;23.362;2023-06-22T10:47:35;8.50;;;5.38;;
41687;SDS011;27371;42.686;23.362;2023-06-22T10:50:01;6.95;;;5.07;;
41687;SDS011;27371;42.686;23.362;2023-06-22T10:52:27;7.53;;;5.10;;
41687;SDS011;27371;42.686;23.362;2023-06-22T10:54:53;4.93;;;4.45;;
41687;SDS011;27371;42.686;23.362;2023-06-22T10:57:18;4.90;;;4.40;;
41687;SDS011;27371;42.686;23.362;2023-06-22T10:59:44;4.75;;;4.35;;
41687;SDS011;27371;42.686;23.362;2023-06-22T11:02:09;5.97;;;5.38;;
41687;SDS011;27371;42.686;23.362;2023-06-22T11:04:35;7.82;;;5.53;;
41687;SDS011;27371;42.686;23.362;2023-06-22T11:07:00;7.22;;;5.32;;
41687;SDS011;27371;42.686;23.362;2023-06-22T11:09:26;6.28;;;5.13;;
41687;SDS011;27371;42.686;23.362;2023-06-22T11:11:52;5.25;;;4.80;;
41687;SDS011;27371;42.686;23.362;2023-06-22T11:14:21;6.22;;;5.63;;
41687;SDS011;27371;42.686;23.362;2023-06-22T11:16:47;7.30;;;5.63;;
41687;SDS011;27371;42.686;23.362;2023-06-22T11:19:13;6.47;;;5.68;;
41687;SDS011;27371;42.686;23.362;2023-06-22T11:21:38;5.32;;;4.65;;
41687;SDS011;27371;42.686;23.362;2023-06-22T11:24:04;7.38;;;5.60;;
41687;SDS011;27371;42.686;23.362;2023-06-22T11:26:30;5.10;;;4.57;;
41687;SDS011;27371;42.686;23.362;2023-06-22T11:28:57;5.38;;;4.82;;
41687;SDS011;27371;42.686;23.362;2023-06-22T11:31:23;7.20;;;5.00;;
41687;SDS011;27371;42.686;23.362;2023-06-22T11:33:49;7.28;;;5.13;;
41687;SDS011;27371;42.686;23.362;2023-06-22T11:36:14;5.30;;;4.80;;
41687;SDS011;27371;42.686;23.362;2023-06-22T11:38:40;6.50;;;4.88;;
41687;SDS011;27371;42.686;23.362;2023-06-22T11:41:06;5.88;;;5.13;;
41687;SDS011;27371;42.686;23.362;2023-06-22T11:43:32;8.10;;;5.40;;
41687;SDS011;27371;42.686;23.362;2023-06-22T11:45:59;6.10;;;5.35;;
41687;SDS011;27371;42.686;23.362;2023-06-22T11:48:24;10.18;;;6.18;;
41687;SDS011;27371;42.686;23.362;2023-06-22T11:50:50;5.15;;;4.65;;
41687;SDS011;27371;42.686;23.362;2023-06-22T11:53:16;6.10;;;4.78;;
41687;SDS011;27371;42.686;23.362;2023-06-22T11:55:42;6.68;;;5.40;;
41687;SDS011;27371;42.686;23.362;2023-06-22T11:58:08;6.65;;;5.63;;
41687;SDS011;27371;42.686;23.362;2023-06-22T12:00:34;5.32;;;4.82;;
41687;SDS011;27371;42.686;23.362;2023-06-22T12:02:59;5.65;;;5.05;;
41687;SDS011;27371;42.686;23.362;2023-06-22T12:05:25;7.47;;;4.88;;
41687;SDS011;27371;42.686;23.362;2023-06-22T12:07:53;5.78;;;4.43;;
41687;SDS011;27371;42.686;23.362;2023-06-22T12:10:19;9.98;;;5.78;;
41687;SDS011;27371;42.686;23.362;2023-06-22T12:12:45;6.13;;;5.30;;
41687;SDS011;27371;42.686;23.362;2023-06-22T12:15:10;5.43;;;4.75;;
41687;SDS011;27371;42.686;23.362;2023-06-22T12:17:36;7.60;;;4.65;;
41687;SDS011;27371;42.686;23.362;2023-06-22T12:20:02;6.18;;;5.28;;
41687;SDS011;27371;42.686;23.362;2023-06-22T12:22:33;6.57;;;4.97;;
41687;SDS011;27371;42.686;23.362;2023-06-22T12:25:00;7.65;;;5.50;;
41687;SDS011;27371;42.686;23.362;2023-06-22T12:27:26;6.82;;;5.45;;
41687;SDS011;27371;42.686;23.362;2023-06-22T12:29:52;7.93;;;5.43;;
41687;SDS011;27371;42.686;23.362;2023-06-22T12:32:17;7.47;;;4.75;;
41687;SDS011;27371;42.686;23.362;2023-06-22T12:34:43;11.23;;;5.25;;
41687;SDS011;27371;42.686;23.362;2023-06-22T12:37:09;9.50;;;5.05;;
41687;SDS011;27371;42.686;23.362;2023-06-22T12:39:35;10.10;;;6.22;;
41687;SDS011;27371;42.686;23.362;2023-06-22T12:42:01;10.68;;;5.93;;
41687;SDS011;27371;42.686;23.362;2023-06-22T12:44:27;7.82;;;5.68;;
41687;SDS011;27371;42.686;23.362;2023-06-22T12:46:52;9.38;;;6.53;;
41687;SDS011;27371;42.686;23.362;2023-06-22T12:49:18;8.52;;;6.32;;
41687;SDS011;27371;42.686;23.362;2023-06-22T12:51:43;7.05;;;6.03;;
41687;SDS011;27371;42.686;23.362;2023-06-22T12:54:09;10.10;;;6.60;;
41687;SDS011;27371;42.686;23.362;2023-06-22T12:56:36;6.88;;;5.47;;
41687;SDS011;27371;42.686;23.362;2023-06-22T12:59:06;11.88;;;6.03;;
41687;SDS011;27371;42.686;23.362;2023-06-22T13:01:31;10.43;;;5.95;;
41687;SDS011;27371;42.686;23.362;2023-06-22T13:04:00;19.25;;;7.07;;
41687;SDS011;27371;42.686;23.362;2023-06-22T13:06:26;8.85;;;6.28;;
41687;SDS011;27371;42.686;23.362;2023-06-22T13:08:51;10.57;;;6.90;;
41687;SDS011;27371;42.686;23.362;2023-06-22T13:11:17;9.32;;;6.68;;
41687;SDS011;27371;42.686;23.362;2023-06-22T13:13:44;9.15;;;6.18;;
41687;SDS011;27371;42.686;23.362;2023-06-22T13:16:10;8.32;;;6.20;;
41687;SDS011;27371;42.686;23.362;2023-06-22T13:18:36;11.77;;;7.05;;
41687;SDS011;27371;42.686;23.362;2023-06-22T13:21:02;9.82;;;5.38;;
41687;SDS011;27371;42.686;23.362;2023-06-22T13:23:28;9.93;;;5.78;;
41687;SDS011;27371;42.686;23.362;2023-06-22T13:25:53;8.80;;;6.38;;
41687;SDS011;27371;42.686;23.362;2023-06-22T13:28:19;10.32;;;6.65;;
41687;SDS011;27371;42.686;23.362;2023-06-22T13:30:46;9.15;;;7.18;;
41687;SDS011;27371;42.686;23.362;2023-06-22T13:33:15;11.27;;;7.88;;
41687;SDS011;27371;42.686;23.362;2023-06-22T13:35:41;10.55;;;7.85;;
41687;SDS011;27371;42.686;23.362;2023-06-22T13:38:08;9.23;;;7.22;;
41687;SDS011;27371;42.686;23.362;2023-06-22T13:40:34;11.23;;;7.40;;
41687;SDS011;27371;42.686;23.362;2023-06-22T13:43:00;15.05;;;7.22;;
41687;SDS011;27371;42.686;23.362;2023-06-22T13:45:26;11.88;;;6.60;;
41687;SDS011;27371;42.686;23.362;2023-06-22T13:47:51;9.48;;;6.97;;
41687;SDS011;27371;42.686;23.362;2023-06-22T13:50:17;9.68;;;7.30;;
41687;SDS011;27371;42.686;23.362;2023-06-22T13:52:45;9.63;;;6.82;;
41687;SDS011;27371;42.686;23.362;2023-06-22T13:55:11;11.85;;;7.35;;
41687;SDS011;27371;42.686;23.362;2023-06-22T13:57:36;7.60;;;6.53;;
41687;SDS011;27371;42.686;23.362;2023-06-22T14:00:05;13.25;;;7.30;;
41687;SDS011;27371;42.686;23.362;2023-06-22T14:02:33;11.75;;;7.00;;
41687;SDS011;27371;42.686;23.362;2023-06-22T14:04:59;11.35;;;7.60;;
41687;SDS011;27371;42.686;23.362;2023-06-22T14:07:24;9.77;;;7.05;;
41687;SDS011;27371;42.686;23.362;2023-06-22T14:09:50;12.73;;;6.78;;
41687;SDS011;27371;42.686;23.362;2023-06-22T14:12:16;10.23;;;6.50;;
41687;SDS011;27371;42.686;23.362;2023-06-22T14:14:43;11.45;;;7.65;;
41687;SDS011;27371;42.686;23.362;2023-06-22T14:17:08;8.60;;;6.43;;
41687;SDS011;27371;42.686;23.362;2023-06-22T14:19:36;11.73;;;6.63;;
41687;SDS011;27371;42.686;23.362;2023-06-22T14:22:02;14.18;;;7.32;;
41687;SDS011;27371;42.686;23.362;2023-06-22T14:24:28;9.32;;;6.65;;
41687;SDS011;27371;42.686;23.362;2023-06-22T14:26:56;10.15;;;6.88;;